Time,TemperatureF,DewpointF,PressureIn,WindDirection,WindDirectionDegrees,WindSpeedMPH,WindSpeedGustMPH,Humidity,HourlyPrecipIn,Conditions,Clouds,dailyrainin,SoftwareType,DateUTC
2013-02-11 00:00:00,58.1,56.1,29.96,WSW,244,0.0,0.0,93,0.00,,FEW014,0.00,VWS V14.01,2013-02-11 06:00:00,
2013-02-11 00:05:00,58.1,56.1,29.96,NNW,336,0.0,0.0,93,0.00,,CLR,0.00,VWS V14.01,2013-02-11 06:05:00,
2013-02-11 00:10:00,58.1,56.1,29.97,SSW,209,0.0,0.0,93,0.00,,CLR,0.00,VWS V14.01,2013-02-11 06:10:00,
2013-02-11 00:15:00,58.0,56.0,29.97,ESE,122,0.0,0.0,93,0.00,,CLR,0.00,VWS V14.01,2013-02-11 06:15:00,
2013-02-11 00:20:00,58.0,56.0,29.98,SE,140,1.0,2.0,93,0.00,,CLR,0.00,VWS V14.01,2013-02-11 06:20:00,
2013-02-11 00:25:00,57.9,55.9,29.98,SW,221,0.0,0.0,93,0.00,,CLR,0.00,VWS V14.01,2013-02-11 06:25:00,
2013-02-11 00:30:00,57.9,55.9,29.98,WSW,245,0.0,1.0,93,0.00,,CLR,0.00,VWS V14.01,2013-02-11 06:30:00,
2013-02-11 00:35:00,57.9,55.9,29.98,WSW,250,0.0,0.0,93,0.00,,CLR,0.00,VWS V14.01,2013-02-11 06:35:00,
2013-02-11 00:40:00,57.8,55.8,29.98,NNE,30,0.0,0.0,93,0.00,,CLR,0.00,VWS V14.01,2013-02-11 06:40:00,
2013-02-11 00:45:00,57.8,55.8,29.98,ENE,74,0.0,2.0,93,0.00,,CLR,0.00,VWS V14.01,2013-02-11 06:45:00,
2013-02-11 00:50:00,57.7,55.7,29.98,East,80,0.0,0.0,93,0.00,,CLR,0.00,VWS V14.01,2013-02-11 06:50:00,
2013-02-11 00:55:00,57.7,55.7,29.99,ENE,61,0.0,0.0,93,0.00,,CLR,0.00,VWS V14.01,2013-02-11 06:55:00,
2013-02-11 01:00:00,57.6,55.6,29.99,NE,44,0.0,1.0,93,0.00,,CLR,0.00,VWS V14.01,2013-02-11 07:00:00,
2013-02-11 01:05:00,57.5,55.5,30.00,NNW,336,0.0,1.0,93,0.00,,CLR,0.00,VWS V14.01,2013-02-11 07:05:00,
2013-02-11 01:10:00,57.5,55.5,29.99,WSW,248,0.0,1.0,93,0.00,,CLR,0.00,VWS V14.01,2013-02-11 07:10:00,
2013-02-11 01:15:00,57.5,55.5,30.00,WSW,244,0.0,1.0,93,0.00,,CLR,0.00,VWS V14.01,2013-02-11 07:15:00,
2013-02-11 01:20:00,57.4,55.4,30.00,SW,222,0.0,3.0,93,0.00,,CLR,0.00,VWS V14.01,2013-02-11 07:20:00,
2013-02-11 01:25:00,57.4,55.4,30.00,South,188,0.0,0.0,93,0.00,,CLR,0.00,VWS V14.01,2013-02-11 07:25:00,
2013-02-11 01:30:00,57.3,55.3,30.00,South,183,0.0,0.0,93,0.00,,CLR,0.00,VWS V14.01,2013-02-11 07:30:00,
2013-02-11 01:35:00,57.2,55.2,30.00,SW,218,0.0,0.0,93,0.01,,CLR,0.01,VWS V14.01,2013-02-11 07:35:00,
2013-02-11 01:40:00,57.1,55.1,30.00,SW,218,0.0,0.0,93,0.01,,CLR,0.01,VWS V14.01,2013-02-11 07:40:00,
2013-02-11 01:45:00,56.9,54.9,30.01,SW,219,0.0,1.0,93,0.01,,CLR,0.01,VWS V14.01,2013-02-11 07:45:00,
2013-02-11 01:50:00,56.8,54.8,30.01,SW,219,0.0,0.0,93,0.01,,CLR,0.01,VWS V14.01,2013-02-11 07:50:00,
2013-02-11 01:55:00,56.8,54.8,30.01,SW,218,0.0,0.0,93,0.01,,CLR,0.01,VWS V14.01,2013-02-11 07:55:00,
2013-02-11 02:00:00,56.6,54.6,30.01,SW,219,0.0,0.0,93,0.01,,CLR,0.01,VWS V14.01,2013-02-11 08:00:00,
2013-02-11 02:05:00,56.5,54.5,30.01,SW,219,0.0,0.0,93,0.01,,CLR,0.01,VWS V14.01,2013-02-11 08:05:00,
2013-02-11 02:10:00,56.4,54.4,30.01,WSW,237,0.0,0.0,93,0.01,,CLR,0.01,VWS V14.01,2013-02-11 08:10:00,
2013-02-11 02:15:00,56.3,54.3,30.02,WSW,237,0.0,0.0,93,0.01,,CLR,0.01,VWS V14.01,2013-02-11 08:15:00,
2013-02-11 02:20:00,56.2,54.2,30.02,WSW,237,0.0,0.0,93,0.01,,CLR,0.01,VWS V14.01,2013-02-11 08:20:00,
2013-02-11 02:25:00,56.1,54.1,30.02,WSW,237,0.0,0.0,93,0.01,,CLR,0.01,VWS V14.01,2013-02-11 08:25:00,
2013-02-11 02:30:00,56.0,54.0,30.02,SSW,205,3.0,3.0,93,0.01,,CLR,0.01,VWS V14.01,2013-02-11 08:30:00,
2013-02-11 02:35:00,55.9,53.9,30.02,SW,226,0.0,0.0,93,0.00,,CLR,0.01,VWS V14.01,2013-02-11 08:35:00,
2013-02-11 02:40:00,55.9,53.9,30.03,SW,226,0.0,0.0,93,0.00,,CLR,0.01,VWS V14.01,2013-02-11 08:40:00,
2013-02-11 02:45:00,55.8,53.8,30.03,SW,226,0.0,0.0,93,0.00,,CLR,0.01,VWS V14.01,2013-02-11 08:45:00,
2013-02-11 02:50:00,55.7,53.7,30.03,SW,226,0.0,0.0,93,0.00,,CLR,0.01,VWS V14.01,2013-02-11 08:50:00,
2013-02-11 02:55:00,55.5,53.5,30.03,SW,226,0.0,0.0,93,0.00,,CLR,0.01,VWS V14.01,2013-02-11 08:55:00,
2013-02-11 03:00:00,55.4,53.4,30.03,SW,226,0.0,0.0,93,0.00,,CLR,0.01,VWS V14.01,2013-02-11 09:00:00,
2013-02-11 03:05:00,55.2,53.2,30.03,SW,226,0.0,0.0,93,0.00,,CLR,0.01,VWS V14.01,2013-02-11 09:05:00,
2013-02-11 03:10:00,55.0,52.7,30.02,SW,226,0.0,0.0,92,0.00,,CLR,0.01,VWS V14.01,2013-02-11 09:10:00,
2013-02-11 03:15:00,54.8,52.5,30.03,SW,226,0.0,0.0,92,0.00,,CLR,0.01,VWS V14.01,2013-02-11 09:15:00,
2013-02-11 03:20:00,54.5,52.2,30.03,SW,226,0.0,0.0,92,0.00,,CLR,0.01,VWS V14.01,2013-02-11 09:20:00,
2013-02-11 03:25:00,54.3,52.0,30.03,SW,226,0.0,0.0,92,0.00,,CLR,0.01,VWS V14.01,2013-02-11 09:25:00,
2013-02-11 03:30:00,54.0,51.7,30.03,SW,226,0.0,0.0,92,0.00,,CLR,0.01,VWS V14.01,2013-02-11 09:30:00,
2013-02-11 03:35:00,53.8,51.5,30.03,SW,226,0.0,0.0,92,0.00,,CLR,0.01,VWS V14.01,2013-02-11 09:35:00,
2013-02-11 03:40:00,53.5,51.2,30.03,SW,226,0.0,0.0,92,0.00,,CLR,0.01,VWS V14.01,2013-02-11 09:40:00,
2013-02-11 03:45:00,53.3,51.0,30.03,SW,226,0.0,0.0,92,0.00,,CLR,0.01,VWS V14.01,2013-02-11 09:45:00,
2013-02-11 03:50:00,53.2,50.9,30.03,SW,226,0.0,0.0,92,0.00,,CLR,0.01,VWS V14.01,2013-02-11 09:50:00,
2013-02-11 03:55:00,53.0,50.7,30.03,SW,226,0.0,0.0,92,0.00,,CLR,0.01,VWS V14.01,2013-02-11 09:55:00,
2013-02-11 04:00:00,52.9,50.6,30.03,SW,226,0.0,0.0,92,0.00,,CLR,0.01,VWS V14.01,2013-02-11 10:00:00,
2013-02-11 04:05:00,52.8,50.5,30.03,SW,226,0.0,0.0,92,0.00,,CLR,0.01,VWS V14.01,2013-02-11 10:05:00,
2013-02-11 04:10:00,52.6,50.3,30.04,SW,226,0.0,0.0,92,0.00,,CLR,0.01,VWS V14.01,2013-02-11 10:10:00,
2013-02-11 04:15:00,52.5,50.2,30.04,SW,226,0.0,0.0,92,0.00,,CLR,0.01,VWS V14.01,2013-02-11 10:15:00,
2013-02-11 04:20:00,52.3,50.0,30.04,WNW,288,1.0,3.0,92,0.00,,CLR,0.01,VWS V14.01,2013-02-11 10:20:00,
2013-02-11 04:25:00,52.1,49.6,30.04,WNW,287,1.0,2.0,91,0.00,,CLR,0.01,VWS V14.01,2013-02-11 10:25:00,
2013-02-11 04:30:00,51.9,49.4,30.05,WNW,287,0.0,1.0,91,0.00,,CLR,0.01,VWS V14.01,2013-02-11 10:30:00,
2013-02-11 04:35:00,51.7,49.2,30.05,WNW,287,2.0,2.0,91,0.00,,CLR,0.01,VWS V14.01,2013-02-11 10:35:00,
2013-02-11 04:40:00,51.5,48.4,30.05,West,280,1.0,2.0,89,0.00,,CLR,0.01,VWS V14.01,2013-02-11 10:40:00,
2013-02-11 04:45:00,51.4,47.7,30.06,WNW,283,0.0,2.0,87,0.00,,CLR,0.01,VWS V14.01,2013-02-11 10:45:00,
2013-02-11 04:50:00,51.5,47.2,30.06,WNW,283,0.0,2.0,85,0.00,,CLR,0.01,VWS V14.01,2013-02-11 10:50:00,
2013-02-11 04:55:00,51.5,46.8,30.06,WNW,283,0.0,0.0,84,0.00,,CLR,0.01,VWS V14.01,2013-02-11 10:55:00,
2013-02-11 05:00:00,51.4,46.1,30.07,WNW,292,0.0,1.0,82,0.00,,CLR,0.01,VWS V14.01,2013-02-11 11:00:00,
2013-02-11 05:05:00,51.5,45.5,30.07,WNW,293,1.0,1.0,80,0.00,,CLR,0.01,VWS V14.01,2013-02-11 11:05:00,
2013-02-11 05:10:00,51.5,44.9,30.07,WNW,293,0.0,1.0,78,0.00,,CLR,0.01,VWS V14.01,2013-02-11 11:10:00,
2013-02-11 05:15:00,51.5,45.2,30.07,WNW,293,0.0,0.0,79,0.00,,CLR,0.01,VWS V14.01,2013-02-11 11:15:00,
2013-02-11 05:20:00,51.4,45.5,30.07,WNW,292,0.0,0.0,80,0.00,,CLR,0.01,VWS V14.01,2013-02-11 11:20:00,
2013-02-11 05:25:00,51.4,45.5,30.07,WNW,292,0.0,0.0,80,0.00,,CLR,0.01,VWS V14.01,2013-02-11 11:25:00,
2013-02-11 05:30:00,51.3,45.7,30.07,WNW,292,0.0,0.0,81,0.00,,CLR,0.01,VWS V14.01,2013-02-11 11:30:00,
2013-02-11 05:35:00,51.2,45.6,30.07,WNW,293,0.0,0.0,81,0.00,,CLR,0.01,VWS V14.01,2013-02-11 11:35:00,
2013-02-11 05:40:00,51.0,45.4,30.08,WNW,292,0.0,0.0,81,0.00,,CLR,0.01,VWS V14.01,2013-02-11 11:40:00,
2013-02-11 05:45:00,50.8,44.5,30.08,WNW,293,0.0,1.0,79,0.00,,CLR,0.01,VWS V14.01,2013-02-11 11:45:00,
2013-02-11 05:50:00,50.5,41.8,30.08,WNW,288,3.0,5.0,72,0.00,,CLR,0.01,VWS V14.01,2013-02-11 11:50:00,
2013-02-11 05:55:00,50.6,40.1,30.09,WNW,286,2.0,4.0,67,0.00,,CLR,0.01,VWS V14.01,2013-02-11 11:55:00,
2013-02-11 06:00:00,50.6,39.7,30.09,WNW,287,1.0,3.0,66,0.00,,CLR,0.01,VWS V14.01,2013-02-11 12:00:00,
2013-02-11 06:05:00,50.6,39.7,30.10,WNW,288,1.0,1.0,66,0.00,,CLR,0.01,VWS V14.01,2013-02-11 12:05:00,
2013-02-11 06:10:00,50.6,39.7,30.10,WNW,288,0.0,0.0,66,0.00,,CLR,0.01,VWS V14.01,2013-02-11 12:10:00,
2013-02-11 06:15:00,50.5,40.0,30.10,WNW,288,0.0,1.0,67,0.00,,CLR,0.01,VWS V14.01,2013-02-11 12:15:00,
2013-02-11 06:20:00,50.4,39.1,30.10,WNW,287,0.0,3.0,65,0.00,,CLR,0.01,VWS V14.01,2013-02-11 12:20:00,
2013-02-11 06:25:00,50.3,39.0,30.10,WNW,288,1.0,3.0,65,0.00,,CLR,0.01,VWS V14.01,2013-02-11 12:25:00,
2013-02-11 06:30:00,50.2,38.9,30.10,WNW,288,2.0,3.0,65,0.00,,CLR,0.01,VWS V14.01,2013-02-11 12:30:00,
2013-02-11 06:35:00,50.2,38.1,30.10,WNW,290,0.0,2.0,63,0.00,,CLR,0.01,VWS V14.01,2013-02-11 12:35:00,
2013-02-11 06:40:00,50.1,38.4,30.11,WNW,290,0.0,1.0,64,0.00,,CLR,0.01,VWS V14.01,2013-02-11 12:40:00,
2013-02-11 06:45:00,50.0,37.5,30.11,WNW,290,0.0,2.0,62,0.00,,CLR,0.01,VWS V14.01,2013-02-11 12:45:00,
2013-02-11 06:50:00,49.9,37.4,30.11,WNW,290,0.0,1.0,62,0.00,,CLR,0.01,VWS V14.01,2013-02-11 12:50:00,
2013-02-11 06:56:00,49.8,37.3,30.11,WNW,290,0.0,1.0,62,0.00,,CLR,0.01,VWS V14.01,2013-02-11 12:56:00,
2013-02-11 07:01:00,49.7,37.6,30.12,WNW,290,0.0,0.0,63,0.00,,CLR,0.01,VWS V14.01,2013-02-11 13:01:00,
2013-02-11 07:06:00,49.7,38.0,30.12,WNW,290,0.0,1.0,64,0.00,,CLR,0.01,VWS V14.01,2013-02-11 13:06:00,
2013-02-11 07:11:00,49.6,38.7,30.12,WNW,290,0.0,0.0,66,0.00,,CLR,0.01,VWS V14.01,2013-02-11 13:11:00,
2013-02-11 07:16:00,49.4,38.9,30.13,WNW,290,1.0,2.0,67,0.00,,CLR,0.01,VWS V14.01,2013-02-11 13:16:00,
2013-02-11 07:21:00,49.2,38.7,30.12,WNW,290,1.0,2.0,67,0.00,,CLR,0.01,VWS V14.01,2013-02-11 13:21:00,
2013-02-11 07:26:00,48.8,37.6,30.13,WNW,286,2.0,3.0,65,0.00,,CLR,0.01,VWS V14.01,2013-02-11 13:26:00,
2013-02-11 07:31:00,48.6,37.0,30.12,WNW,287,2.0,4.0,64,0.00,,CLR,0.01,VWS V14.01,2013-02-11 13:31:00,
2013-02-11 07:36:00,48.5,36.5,30.13,WNW,294,2.0,2.0,63,0.00,,CLR,0.01,VWS V14.01,2013-02-11 13:36:00,
2013-02-11 07:41:00,48.5,36.9,30.12,WNW,294,2.0,2.0,64,0.00,,CLR,0.01,VWS V14.01,2013-02-11 13:41:00,
2013-02-11 07:46:00,48.5,37.3,30.13,WNW,294,0.0,0.0,65,0.00,,CLR,0.01,VWS V14.01,2013-02-11 13:46:00,
2013-02-11 07:51:00,48.4,36.8,30.14,WNW,294,0.0,5.0,64,0.00,,CLR,0.01,VWS V14.01,2013-02-11 13:51:00,
2013-02-11 07:56:00,48.3,36.3,30.14,WNW,294,1.0,3.0,63,0.00,,CLR,0.01,VWS V14.01,2013-02-11 13:56:00,
2013-02-11 08:01:00,48.3,36.7,30.14,WNW,294,0.0,1.0,64,0.00,,CLR,0.01,VWS V14.01,2013-02-11 14:01:00,
2013-02-11 08:06:00,48.2,37.0,30.14,WNW,294,0.0,0.0,65,0.00,,CLR,0.01,VWS V14.01,2013-02-11 14:06:00,
2013-02-11 08:11:00,48.1,37.3,30.14,WNW,294,0.0,1.0,66,0.00,,CLR,0.01,VWS V14.01,2013-02-11 14:11:00,
2013-02-11 08:16:00,48.0,36.8,30.15,WNW,294,0.0,0.0,65,0.00,,CLR,0.01,VWS V14.01,2013-02-11 14:16:00,
2013-02-11 08:21:00,47.9,37.1,30.17,WNW,294,2.0,3.0,66,0.00,,CLR,0.01,VWS V14.01,2013-02-11 14:21:00,
2013-02-11 08:26:00,47.8,36.6,30.17,WNW,294,1.0,4.0,65,0.00,,CLR,0.01,VWS V14.01,2013-02-11 14:26:00,
2013-02-11 08:31:00,47.8,37.4,30.17,WNW,294,0.0,0.0,67,0.00,,CLR,0.01,VWS V14.01,2013-02-11 14:31:00,
2013-02-11 08:36:00,47.8,37.8,30.17,WNW,294,0.0,0.0,68,0.00,,CLR,0.01,VWS V14.01,2013-02-11 14:36:00,
2013-02-11 08:41:00,47.7,36.9,30.18,WNW,294,0.0,0.0,66,0.00,,CLR,0.01,VWS V14.01,2013-02-11 14:41:00,
2013-02-11 08:46:00,47.7,36.5,30.18,WNW,294,2.0,3.0,65,0.00,,CLR,0.01,VWS V14.01,2013-02-11 14:46:00,
2013-02-11 08:51:00,47.7,36.1,30.18,WNW,294,2.0,3.0,64,0.00,,CLR,0.01,VWS V14.01,2013-02-11 14:51:00,
2013-02-11 08:56:00,47.6,36.0,30.18,WNW,291,0.0,4.0,64,0.00,,CLR,0.01,VWS V14.01,2013-02-11 14:56:00,
2013-02-11 09:01:00,47.6,36.4,30.18,WNW,291,0.0,0.0,65,0.00,,CLR,0.01,VWS V14.01,2013-02-11 15:01:00,
2013-02-11 09:06:00,47.6,35.2,30.18,WNW,289,1.0,3.0,62,0.00,,CLR,0.01,VWS V14.01,2013-02-11 15:06:00,
2013-02-11 09:11:00,47.6,35.6,30.18,WNW,288,2.0,3.0,63,0.00,,CLR,0.01,VWS V14.01,2013-02-11 15:11:00,
2013-02-11 09:16:00,47.6,35.6,30.18,WNW,288,2.0,4.0,63,0.00,,CLR,0.01,VWS V14.01,2013-02-11 15:16:00,
2013-02-11 09:21:00,47.6,36.0,30.17,WNW,288,2.0,3.0,64,0.00,,CLR,0.01,VWS V14.01,2013-02-11 15:21:00,
2013-02-11 09:26:00,47.6,36.0,30.17,WNW,294,3.0,4.0,64,0.00,,CLR,0.01,VWS V14.01,2013-02-11 15:26:00,
2013-02-11 09:31:00,47.5,35.5,30.17,WNW,291,3.0,4.0,63,0.00,,CLR,0.01,VWS V14.01,2013-02-11 15:31:00,
2013-02-11 09:36:00,47.6,36.0,30.17,NNW,330,1.0,4.0,64,0.00,,CLR,0.01,VWS V14.01,2013-02-11 15:36:00,
2013-02-11 09:41:00,47.6,35.6,30.17,West,281,6.0,6.0,63,0.00,,CLR,0.01,VWS V14.01,2013-02-11 15:41:00,
2013-02-11 09:46:00,47.6,35.2,30.16,West,279,1.0,3.0,62,0.00,,CLR,0.01,VWS V14.01,2013-02-11 15:46:00,
2013-02-11 09:51:00,47.5,35.5,30.17,WNW,290,3.0,4.0,63,0.00,,CLR,0.01,VWS V14.01,2013-02-11 15:51:00,
2013-02-11 09:56:00,47.5,35.5,30.17,WNW,300,2.0,3.0,63,0.00,,CLR,0.01,VWS V14.01,2013-02-11 15:56:00,
2013-02-11 10:01:00,47.5,35.9,30.18,WNW,286,4.0,4.0,64,0.00,,CLR,0.01,VWS V14.01,2013-02-11 16:01:00,
2013-02-11 10:06:00,47.5,35.5,30.18,WNW,290,2.0,4.0,63,0.00,,CLR,0.01,VWS V14.01,2013-02-11 16:06:00,
2013-02-11 10:11:00,47.4,35.0,30.20,WNW,284,4.0,4.0,62,0.00,,CLR,0.01,VWS V14.01,2013-02-11 16:11:00,
2013-02-11 10:16:00,47.4,35.5,30.20,WNW,284,3.0,3.0,63,0.00,,CLR,0.01,VWS V14.01,2013-02-11 16:16:00,
2013-02-11 10:21:00,47.4,36.2,30.21,WNW,300,0.0,2.0,65,0.00,,FEW001,0.01,VWS V14.01,2013-02-11 16:21:00,
2013-02-11 10:26:00,47.4,35.8,30.20,WNW,296,0.0,1.0,64,0.00,,FEW001,0.01,VWS V14.01,2013-02-11 16:26:00,
2013-02-11 10:31:00,47.4,36.2,30.20,WNW,292,0.0,3.0,65,0.00,,FEW001,0.01,VWS V14.01,2013-02-11 16:31:00,
2013-02-11 10:36:00,47.4,36.2,30.20,NW,304,2.0,3.0,65,0.00,,FEW001,0.01,VWS V14.01,2013-02-11 16:36:00,
2013-02-11 10:41:00,47.3,35.8,30.21,WNW,290,4.0,4.0,64,0.00,,FEW001,0.01,VWS V14.01,2013-02-11 16:41:00,
2013-02-11 10:46:00,47.3,35.4,30.20,NW,307,0.0,1.0,63,0.00,,FEW001,0.01,VWS V14.01,2013-02-11 16:46:00,
2013-02-11 10:51:00,47.3,35.4,30.20,WNW,290,0.0,5.0,63,0.00,,FEW001,0.01,VWS V14.01,2013-02-11 16:51:00,
2013-02-11 10:56:00,47.3,35.8,30.21,WNW,290,0.0,3.0,64,0.00,,FEW001,0.01,VWS V14.01,2013-02-11 16:56:00,
2013-02-11 11:01:00,47.2,34.5,30.21,WNW,295,3.0,5.0,61,0.00,,FEW001,0.01,VWS V14.01,2013-02-11 17:01:00,
2013-02-11 11:06:00,47.2,34.5,30.20,WNW,296,0.0,2.0,61,0.00,,CLR,0.01,VWS V14.01,2013-02-11 17:06:00,
2013-02-11 11:11:00,47.2,34.5,30.20,WNW,296,1.0,3.0,61,0.00,,CLR,0.01,VWS V14.01,2013-02-11 17:11:00,
2013-02-11 11:16:00,47.2,34.0,30.20,WNW,296,1.0,2.0,60,0.00,,CLR,0.01,VWS V14.01,2013-02-11 17:16:00,
2013-02-11 11:21:00,47.2,34.9,30.19,WNW,296,0.0,0.0,62,0.00,,CLR,0.01,VWS V14.01,2013-02-11 17:21:00,
2013-02-11 11:26:00,47.3,34.1,30.18,NW,309,0.0,1.0,60,0.00,,CLR,0.01,VWS V14.01,2013-02-11 17:26:00,
2013-02-11 11:31:00,47.4,34.6,30.18,WNW,290,0.0,1.0,61,0.00,,CLR,0.01,VWS V14.01,2013-02-11 17:31:00,
2013-02-11 11:36:00,47.4,34.2,30.19,West,277,2.0,2.0,60,0.00,,CLR,0.01,VWS V14.01,2013-02-11 17:36:00,
2013-02-11 11:41:00,47.6,34.8,30.19,West,279,3.0,4.0,61,0.00,,CLR,0.01,VWS V14.01,2013-02-11 17:41:00,
2013-02-11 11:46:00,47.9,35.1,30.19,West,279,0.0,0.0,61,0.00,,CLR,0.01,VWS V14.01,2013-02-11 17:46:00,
2013-02-11 11:51:00,48.4,35.2,30.20,West,279,0.0,1.0,60,0.00,,CLR,0.01,VWS V14.01,2013-02-11 17:51:00,
2013-02-11 11:56:00,48.4,34.8,30.21,WNW,286,0.0,2.0,59,0.00,,CLR,0.01,VWS V14.01,2013-02-11 17:56:00,
2013-02-11 12:01:00,48.4,34.3,30.21,WNW,286,0.0,2.0,58,0.00,,CLR,0.01,VWS V14.01,2013-02-11 18:01:00,
2013-02-11 12:06:00,48.3,34.2,30.21,WNW,286,1.0,2.0,58,0.00,,CLR,0.01,VWS V14.01,2013-02-11 18:06:00,
2013-02-11 12:11:00,48.3,34.2,30.20,WNW,286,1.0,2.0,58,0.00,,CLR,0.01,VWS V14.01,2013-02-11 18:11:00,
2013-02-11 12:16:00,48.3,34.2,30.20,WNW,286,0.0,2.0,58,0.00,,CLR,0.01,VWS V14.01,2013-02-11 18:16:00,
2013-02-11 12:21:00,48.3,34.7,30.20,WNW,286,1.0,1.0,59,0.00,,CLR,0.01,VWS V14.01,2013-02-11 18:21:00,
2013-02-11 12:26:00,48.4,34.8,30.20,WNW,286,0.0,1.0,59,0.00,,CLR,0.01,VWS V14.01,2013-02-11 18:26:00,
2013-02-11 12:31:00,48.6,35.4,30.20,WNW,286,0.0,0.0,60,0.00,,CLR,0.01,VWS V14.01,2013-02-11 18:31:00,
2013-02-11 12:36:00,48.8,35.1,30.19,WNW,286,0.0,0.0,59,0.00,,CLR,0.01,VWS V14.01,2013-02-11 18:36:00,
2013-02-11 12:41:00,48.9,34.8,30.19,WNW,286,0.0,0.0,58,0.00,,CLR,0.01,VWS V14.01,2013-02-11 18:41:00,
2013-02-11 12:46:00,49.2,35.9,30.20,WNW,286,0.0,1.0,60,0.00,,CLR,0.01,VWS V14.01,2013-02-11 18:46:00,
2013-02-11 12:51:00,49.2,34.2,30.20,WNW,286,2.0,2.0,56,0.00,,CLR,0.01,VWS V14.01,2013-02-11 18:51:00,
2013-02-11 12:56:00,49.4,35.7,30.19,WNW,286,0.0,0.0,59,0.00,,CLR,0.01,VWS V14.01,2013-02-11 18:56:00,
2013-02-11 13:01:00,49.6,35.0,30.18,NW,323,0.0,1.0,57,0.00,,CLR,0.01,VWS V14.01,2013-02-11 19:01:00,
2013-02-11 13:06:00,49.7,35.1,30.18,North,355,0.0,0.0,57,0.00,,CLR,0.01,VWS V14.01,2013-02-11 19:06:00,
2013-02-11 13:11:00,49.9,34.8,30.19,North,355,0.0,2.0,56,0.00,,CLR,0.01,VWS V14.01,2013-02-11 19:11:00,
2013-02-11 13:16:00,50.1,35.0,30.18,North,355,0.0,2.0,56,0.00,,CLR,0.01,VWS V14.01,2013-02-11 19:16:00,
2013-02-11 13:21:00,50.3,34.8,30.18,WNW,295,3.0,3.0,55,0.00,,CLR,0.01,VWS V14.01,2013-02-11 19:21:00,
2013-02-11 13:26:00,50.7,34.7,30.18,WNW,294,2.0,2.0,54,0.00,,CLR,0.01,VWS V14.01,2013-02-11 19:26:00,
2013-02-11 13:31:00,50.8,34.3,30.18,WNW,294,0.0,0.0,53,0.00,,CLR,0.01,VWS V14.01,2013-02-11 19:31:00,
2013-02-11 13:36:00,50.8,35.7,30.18,WNW,294,0.0,1.0,56,0.00,,CLR,0.01,VWS V14.01,2013-02-11 19:36:00,
2013-02-11 13:41:00,50.8,34.3,30.17,WNW,294,2.0,3.0,53,0.00,,CLR,0.01,VWS V14.01,2013-02-11 19:41:00,
2013-02-11 13:46:00,50.9,34.4,30.17,WNW,294,0.0,0.0,53,0.00,,CLR,0.01,VWS V14.01,2013-02-11 19:46:00,
2013-02-11 13:51:00,51.1,35.0,30.17,WNW,294,0.0,1.0,54,0.00,,CLR,0.01,VWS V14.01,2013-02-11 19:51:00,
2013-02-11 13:56:00,51.5,35.4,30.17,WNW,294,1.0,1.0,54,0.00,,CLR,0.01,VWS V14.01,2013-02-11 19:56:00,
2013-02-11 14:01:00,51.6,34.6,30.17,WNW,294,0.0,1.0,52,0.00,,CLR,0.01,VWS V14.01,2013-02-11 20:01:00,
2013-02-11 14:06:00,52.0,34.5,30.17,WNW,294,3.0,4.0,51,0.00,,CLR,0.01,VWS V14.01,2013-02-11 20:06:00,
2013-02-11 14:11:00,52.2,34.6,30.17,NW,311,0.0,1.0,51,0.00,,CLR,0.01,VWS V14.01,2013-02-11 20:11:00,
2013-02-11 14:16:00,52.0,33.5,30.16,NW,311,0.0,4.0,49,0.00,,CLR,0.01,VWS V14.01,2013-02-11 20:16:00,
2013-02-11 14:21:00,52.2,34.1,30.16,ESE,106,0.0,2.0,50,0.00,,CLR,0.01,VWS V14.01,2013-02-11 20:21:00,
2013-02-11 14:26:00,52.8,34.7,30.16,East,100,3.0,3.0,50,0.00,,CLR,0.01,VWS V14.01,2013-02-11 20:26:00,
2013-02-11 14:31:00,53.1,34.0,30.16,WNW,294,0.0,1.0,48,0.00,,CLR,0.01,VWS V14.01,2013-02-11 20:31:00,
2013-02-11 14:36:00,53.3,34.1,30.16,NW,305,2.0,2.0,48,0.00,,CLR,0.01,VWS V14.01,2013-02-11 20:36:00,
2013-02-11 14:41:00,53.7,34.5,30.16,WNW,295,2.0,4.0,48,0.00,,CLR,0.01,VWS V14.01,2013-02-11 20:41:00,
2013-02-11 14:46:00,53.6,33.9,30.16,North,9,1.0,1.0,47,0.00,,CLR,0.01,VWS V14.01,2013-02-11 20:46:00,
2013-02-11 14:51:00,53.6,33.9,30.16,WNW,294,3.0,3.0,47,0.00,,CLR,0.01,VWS V14.01,2013-02-11 20:51:00,
2013-02-11 14:56:00,53.6,32.8,30.15,WNW,290,1.0,5.0,45,0.00,,CLR,0.01,VWS V14.01,2013-02-11 20:56:00,
2013-02-11 15:01:00,53.7,33.4,30.15,WNW,284,2.0,3.0,46,0.00,,CLR,0.01,VWS V14.01,2013-02-11 21:01:00,
2013-02-11 15:06:00,53.7,33.4,30.15,North,355,0.0,1.0,46,0.00,,CLR,0.01,VWS V14.01,2013-02-11 21:06:00,
2013-02-11 15:11:00,54.0,33.2,30.15,North,355,0.0,1.0,45,0.00,,CLR,0.01,VWS V14.01,2013-02-11 21:11:00,
2013-02-11 15:16:00,54.2,32.8,30.15,WNW,290,1.0,2.0,44,0.00,,CLR,0.01,VWS V14.01,2013-02-11 21:16:00,
2013-02-11 15:21:00,54.2,33.9,30.15,WNW,290,2.0,4.0,46,0.00,,CLR,0.01,VWS V14.01,2013-02-11 21:21:00,
2013-02-11 15:26:00,54.2,33.3,30.15,WNW,290,2.0,2.0,45,0.00,,CLR,0.01,VWS V14.01,2013-02-11 21:26:00,
2013-02-11 15:31:00,54.3,33.4,30.15,NNW,342,1.0,2.0,45,0.00,,CLR,0.01,VWS V14.01,2013-02-11 21:31:00,
2013-02-11 15:36:00,54.3,33.4,30.15,NW,304,0.0,2.0,45,0.00,,CLR,0.01,VWS V14.01,2013-02-11 21:36:00,
2013-02-11 15:41:00,54.4,34.1,30.15,NNW,341,0.0,0.0,46,0.00,,CLR,0.01,VWS V14.01,2013-02-11 21:41:00,
2013-02-11 15:46:00,54.5,32.5,30.15,NNW,341,0.0,0.0,43,0.00,,CLR,0.01,VWS V14.01,2013-02-11 21:46:00,
2013-02-11 15:51:00,54.4,33.5,30.14,NNW,330,1.0,1.0,45,0.00,,CLR,0.01,VWS V14.01,2013-02-11 21:51:00,
2013-02-11 15:56:00,54.4,32.4,30.14,WNW,298,1.0,1.0,43,0.00,,CLR,0.01,VWS V14.01,2013-02-11 21:56:00,
2013-02-11 16:01:00,54.4,33.0,30.14,WNW,298,0.0,0.0,44,0.00,,CLR,0.01,VWS V14.01,2013-02-11 22:01:00,
2013-02-11 16:06:00,54.2,33.9,30.14,WNW,298,0.0,0.0,46,0.00,,CLR,0.01,VWS V14.01,2013-02-11 22:06:00,
2013-02-11 16:11:00,54.2,33.3,30.14,WNW,298,1.0,1.0,45,0.00,,CLR,0.01,VWS V14.01,2013-02-11 22:11:00,
2013-02-11 16:16:00,54.1,33.2,30.14,NE,56,0.0,0.0,45,0.00,,CLR,0.01,VWS V14.01,2013-02-11 22:16:00,
2013-02-11 16:21:00,54.0,32.6,30.13,ENE,57,0.0,0.0,44,0.00,,CLR,0.01,VWS V14.01,2013-02-11 22:21:00,
2013-02-11 16:26:00,53.8,33.0,30.13,ENE,57,0.0,0.0,45,0.00,,CLR,0.01,VWS V14.01,2013-02-11 22:26:00,
2013-02-11 16:31:00,53.6,34.4,30.12,ENE,57,0.0,0.0,48,0.00,,CLR,0.01,VWS V14.01,2013-02-11 22:31:00,
2013-02-11 16:36:00,53.3,34.1,30.11,ENE,57,0.0,0.0,48,0.00,,CLR,0.01,VWS V14.01,2013-02-11 22:36:00,
2013-02-11 16:41:00,53.1,35.0,30.13,ENE,57,0.0,0.0,50,0.00,,CLR,0.01,VWS V14.01,2013-02-11 22:41:00,
2013-02-11 16:46:00,52.8,34.7,30.13,ENE,57,0.0,0.0,50,0.00,,CLR,0.01,VWS V14.01,2013-02-11 22:46:00,
2013-02-11 16:51:00,52.5,34.9,30.14,ENE,57,0.0,0.0,51,0.00,,CLR,0.01,VWS V14.01,2013-02-11 22:51:00,
2013-02-11 16:56:00,52.2,34.6,30.15,ENE,57,0.0,0.0,51,0.00,,CLR,0.01,VWS V14.01,2013-02-11 22:56:00,
2013-02-11 17:01:00,51.9,34.4,30.15,ENE,57,0.0,0.0,51,0.00,,CLR,0.01,VWS V14.01,2013-02-11 23:01:00,
2013-02-11 17:06:00,51.7,35.6,30.14,ENE,57,0.0,0.0,54,0.00,,CLR,0.01,VWS V14.01,2013-02-11 23:06:00,
2013-02-11 17:11:00,51.4,34.4,30.14,ENE,57,0.0,0.0,52,0.00,,CLR,0.01,VWS V14.01,2013-02-11 23:11:00,
2013-02-11 17:16:00,51.2,34.2,30.14,ENE,57,0.0,0.0,52,0.00,,CLR,0.01,VWS V14.01,2013-02-11 23:16:00,
2013-02-11 17:21:00,51.0,34.5,30.14,ENE,57,0.0,0.0,53,0.00,,CLR,0.01,VWS V14.01,2013-02-11 23:21:00,
2013-02-11 17:26:00,50.9,35.3,30.15,ENE,57,0.0,0.0,55,0.00,,CLR,0.01,VWS V14.01,2013-02-11 23:26:00,
2013-02-11 17:31:00,50.7,35.6,30.14,ENE,57,0.0,0.0,56,0.00,,CLR,0.01,VWS V14.01,2013-02-11 23:31:00,
2013-02-11 17:36:00,50.6,35.0,30.14,ENE,57,0.0,0.0,55,0.00,,CLR,0.01,VWS V14.01,2013-02-11 23:36:00,
2013-02-11 17:41:00,50.5,35.4,30.14,ENE,57,0.0,0.0,56,0.00,,CLR,0.01,VWS V14.01,2013-02-11 23:41:00,
2013-02-11 17:46:00,50.4,35.8,30.14,ENE,57,0.0,0.0,57,0.00,,CLR,0.01,VWS V14.01,2013-02-11 23:46:00,
2013-02-11 17:51:00,50.2,35.1,30.14,ENE,57,0.0,0.0,56,0.00,,CLR,0.01,VWS V14.01,2013-02-11 23:51:00,
2013-02-11 17:56:00,50.0,34.5,30.14,ENE,57,0.0,0.0,55,0.00,,CLR,0.01,VWS V14.01,2013-02-11 23:56:00,
2013-02-11 18:01:00,49.9,35.3,30.14,ENE,57,0.0,0.0,57,0.00,,CLR,0.01,VWS V14.01,2013-02-12 00:01:00,
2013-02-11 18:06:00,49.7,35.1,30.14,ENE,57,0.0,0.0,57,0.00,,CLR,0.01,VWS V14.01,2013-02-12 00:06:00,
2013-02-11 18:11:00,49.6,35.0,30.14,ENE,57,0.0,0.0,57,0.00,,CLR,0.01,VWS V14.01,2013-02-12 00:11:00,
2013-02-11 18:16:00,49.5,34.5,30.14,ENE,57,0.0,0.0,56,0.00,,CLR,0.01,VWS V14.01,2013-02-12 00:16:00,
2013-02-11 18:21:00,49.3,34.3,30.14,ENE,57,0.0,0.0,56,0.00,,CLR,0.01,VWS V14.01,2013-02-12 00:21:00,
2013-02-11 18:26:00,49.2,34.6,30.14,ENE,57,0.0,0.0,57,0.00,,CLR,0.01,VWS V14.01,2013-02-12 00:26:00,
2013-02-11 18:31:00,49.0,36.2,30.14,ENE,57,0.0,0.0,61,0.00,,CLR,0.01,VWS V14.01,2013-02-12 00:31:00,
2013-02-11 18:36:00,48.9,36.5,30.14,ENE,57,0.0,0.0,62,0.00,,CLR,0.01,VWS V14.01,2013-02-12 00:36:00,
2013-02-11 18:41:00,48.8,35.5,30.14,ENE,57,0.0,0.0,60,0.00,,CLR,0.01,VWS V14.01,2013-02-12 00:41:00,
2013-02-11 18:46:00,48.7,35.5,30.14,ENE,57,0.0,0.0,60,0.00,,CLR,0.01,VWS V14.01,2013-02-12 00:46:00,
2013-02-11 18:51:00,48.5,35.3,30.14,ENE,57,0.0,0.0,60,0.00,,CLR,0.01,VWS V14.01,2013-02-12 00:51:00,
2013-02-11 18:56:00,48.3,35.1,30.15,ENE,57,0.0,0.0,60,0.00,,CLR,0.01,VWS V14.01,2013-02-12 00:56:00,
2013-02-11 19:01:00,48.2,35.8,30.16,ENE,57,0.0,0.0,62,0.00,,CLR,0.01,VWS V14.01,2013-02-12 01:01:00,
2013-02-11 19:06:00,48.1,36.1,30.16,ENE,57,0.0,0.0,63,0.00,,CLR,0.01,VWS V14.01,2013-02-12 01:06:00,
2013-02-11 19:11:00,48.0,36.0,30.16,ENE,57,0.0,0.0,63,0.00,,CLR,0.01,VWS V14.01,2013-02-12 01:11:00,
2013-02-11 19:16:00,47.9,37.1,30.16,ENE,57,0.0,0.0,66,0.00,,CLR,0.01,VWS V14.01,2013-02-12 01:16:00,
2013-02-11 19:21:00,47.8,37.0,30.16,ENE,57,0.0,0.0,66,0.00,,CLR,0.01,VWS V14.01,2013-02-12 01:21:00,
2013-02-11 19:26:00,47.7,36.1,30.16,ENE,57,0.0,0.0,64,0.00,,CLR,0.01,VWS V14.01,2013-02-12 01:26:00,
2013-02-11 19:31:00,47.6,35.6,30.16,ENE,57,0.0,0.0,63,0.00,,CLR,0.01,VWS V14.01,2013-02-12 01:31:00,
2013-02-11 19:36:00,47.4,35.5,30.15,ENE,57,0.0,0.0,63,0.00,,CLR,0.01,VWS V14.01,2013-02-12 01:36:00,
2013-02-11 19:41:00,47.4,37.4,30.15,ENE,57,0.0,0.0,68,0.00,,CLR,0.01,VWS V14.01,2013-02-12 01:41:00,
2013-02-11 19:46:00,47.3,36.2,30.15,ENE,57,0.0,0.0,65,0.00,,CLR,0.01,VWS V14.01,2013-02-12 01:46:00,
2013-02-11 19:51:00,47.1,36.0,30.14,ENE,57,0.0,0.0,65,0.00,,CLR,0.01,VWS V14.01,2013-02-12 01:51:00,
2013-02-11 19:56:00,47.1,36.7,30.15,ENE,57,0.0,0.0,67,0.00,,CLR,0.01,VWS V14.01,2013-02-12 01:56:00,
2013-02-11 20:01:00,47.0,37.0,30.16,ENE,57,0.0,0.0,68,0.00,,CLR,0.01,VWS V14.01,2013-02-12 02:01:00,
2013-02-11 20:06:00,46.8,36.8,30.18,ENE,57,0.0,0.0,68,0.00,,CLR,0.01,VWS V14.01,2013-02-12 02:06:00,
2013-02-11 20:11:00,46.6,36.6,30.18,ENE,57,0.0,0.0,68,0.00,,CLR,0.01,VWS V14.01,2013-02-12 02:11:00,
2013-02-11 20:16:00,46.5,36.9,30.19,ENE,57,0.0,0.0,69,0.00,,CLR,0.01,VWS V14.01,2013-02-12 02:16:00,
2013-02-11 20:21:00,46.5,38.0,30.20,ENE,57,0.0,0.0,72,0.00,,CLR,0.01,VWS V14.01,2013-02-12 02:21:00,
2013-02-11 20:26:00,46.4,37.9,30.20,ENE,57,0.0,0.0,72,0.00,,CLR,0.01,VWS V14.01,2013-02-12 02:26:00,
2013-02-11 20:31:00,46.3,37.8,30.20,ENE,57,0.0,0.0,72,0.00,,CLR,0.01,VWS V14.01,2013-02-12 02:31:00,
2013-02-11 20:36:00,46.3,39.2,30.19,ENE,57,0.0,0.0,76,0.00,,CLR,0.01,VWS V14.01,2013-02-12 02:36:00,
2013-02-11 20:41:00,46.3,39.2,30.18,ENE,57,0.0,0.0,76,0.00,,CLR,0.01,VWS V14.01,2013-02-12 02:41:00,
2013-02-11 20:46:00,46.2,39.1,30.18,ENE,57,0.0,0.0,76,0.00,,CLR,0.01,VWS V14.01,2013-02-12 02:46:00,
2013-02-11 20:51:00,46.2,39.7,30.17,ENE,57,0.0,0.0,78,0.00,,CLR,0.01,VWS V14.01,2013-02-12 02:51:00,
2013-02-11 20:56:00,46.1,39.6,30.17,ENE,57,0.0,0.0,78,0.00,,CLR,0.01,VWS V14.01,2013-02-12 02:56:00,
2013-02-11 21:01:00,46.0,39.2,30.16,ENE,57,0.0,0.0,77,0.00,,CLR,0.01,VWS V14.01,2013-02-12 03:01:00,
2013-02-11 21:06:00,45.9,39.1,30.16,ENE,57,0.0,0.0,77,0.00,,CLR,0.01,VWS V14.01,2013-02-12 03:06:00,
2013-02-11 21:11:00,45.7,38.9,30.16,ENE,57,0.0,0.0,77,0.00,,CLR,0.01,VWS V14.01,2013-02-12 03:11:00,
2013-02-11 21:16:00,45.6,38.5,30.17,ENE,57,0.0,0.0,76,0.00,,CLR,0.01,VWS V14.01,2013-02-12 03:16:00,
2013-02-11 21:21:00,45.4,38.3,30.18,ENE,57,0.0,0.0,76,0.00,,CLR,0.01,VWS V14.01,2013-02-12 03:21:00,
2013-02-11 21:26:00,45.4,38.6,30.18,ENE,57,0.0,0.0,77,0.00,,CLR,0.01,VWS V14.01,2013-02-12 03:26:00,
2013-02-11 21:31:00,45.3,39.2,30.18,ENE,57,0.0,0.0,79,0.00,,CLR,0.01,VWS V14.01,2013-02-12 03:31:00,
2013-02-11 21:36:00,45.2,39.1,30.18,ENE,57,0.0,0.0,79,0.00,,CLR,0.01,VWS V14.01,2013-02-12 03:36:00,
2013-02-11 21:41:00,45.1,39.3,30.18,ENE,57,0.0,0.0,80,0.00,,CLR,0.01,VWS V14.01,2013-02-12 03:41:00,
2013-02-11 21:46:00,45.1,39.3,30.17,ENE,57,0.0,0.0,80,0.00,,CLR,0.01,VWS V14.01,2013-02-12 03:46:00,
2013-02-11 21:51:00,45.0,39.5,30.16,ENE,57,0.0,0.0,81,0.00,,CLR,0.01,VWS V14.01,2013-02-12 03:51:00,
2013-02-11 21:56:00,45.0,39.2,30.17,ENE,57,0.0,0.0,80,0.00,,CLR,0.01,VWS V14.01,2013-02-12 03:56:00,
2013-02-11 22:01:00,45.0,39.2,30.17,ENE,57,0.0,0.0,80,0.00,,CLR,0.01,VWS V14.01,2013-02-12 04:01:00,
2013-02-11 22:06:00,44.9,39.1,30.17,ENE,57,0.0,0.0,80,0.00,,CLR,0.01,VWS V14.01,2013-02-12 04:06:00,
2013-02-11 22:11:00,44.9,39.1,30.17,ENE,57,0.0,0.0,80,0.00,,CLR,0.01,VWS V14.01,2013-02-12 04:11:00,
2013-02-11 22:16:00,44.8,39.0,30.17,ENE,57,0.0,0.0,80,0.00,,CLR,0.01,VWS V14.01,2013-02-12 04:16:00,
2013-02-11 22:21:00,44.7,39.2,30.16,ENE,57,0.0,0.0,81,0.00,,CLR,0.01,VWS V14.01,2013-02-12 04:21:00,
2013-02-11 22:26:00,44.7,39.2,30.16,ENE,57,0.0,0.0,81,0.00,,CLR,0.01,VWS V14.01,2013-02-12 04:26:00,
2013-02-11 22:31:00,44.7,39.2,30.17,ENE,57,0.0,0.0,81,0.00,,CLR,0.01,VWS V14.01,2013-02-12 04:31:00,
2013-02-11 22:36:00,44.7,39.2,30.17,ENE,57,0.0,0.0,81,0.00,,CLR,0.01,VWS V14.01,2013-02-12 04:36:00,
2013-02-11 22:41:00,44.7,39.2,30.17,ENE,57,0.0,0.0,81,0.00,,CLR,0.01,VWS V14.01,2013-02-12 04:41:00,
2013-02-11 22:46:00,44.6,39.1,30.17,ENE,57,0.0,0.0,81,0.00,,CLR,0.01,VWS V14.01,2013-02-12 04:46:00,
2013-02-11 22:51:00,44.6,39.1,30.17,ENE,57,0.0,0.0,81,0.00,,CLR,0.01,VWS V14.01,2013-02-12 04:51:00,
2013-02-11 22:56:00,44.5,39.0,30.17,ENE,57,0.0,0.0,81,0.00,,CLR,0.01,VWS V14.01,2013-02-12 04:56:00,
2013-02-11 23:00:00,44.5,39.0,30.17,ENE,57,0.0,0.0,81,0.00,,CLR,0.01,VWS V14.01,2013-02-12 05:00:00,
2013-02-11 23:05:00,44.5,39.4,30.17,ENE,57,0.0,0.0,82,0.00,,CLR,0.01,VWS V14.01,2013-02-12 05:05:00,
2013-02-11 23:10:00,44.4,39.3,30.17,ENE,57,0.0,0.0,82,0.00,,CLR,0.01,VWS V14.01,2013-02-12 05:10:00,
2013-02-11 23:15:00,44.3,39.2,30.18,ENE,57,0.0,0.0,82,0.00,,CLR,0.01,VWS V14.01,2013-02-12 05:15:00,
2013-02-11 23:20:00,44.2,39.1,30.18,ENE,57,0.0,0.0,82,0.00,,CLR,0.01,VWS V14.01,2013-02-12 05:20:00,
2013-02-11 23:25:00,44.1,39.0,30.19,ENE,57,0.0,0.0,82,0.00,,CLR,0.01,VWS V14.01,2013-02-12 05:25:00,
2013-02-11 23:30:00,44.1,39.0,30.19,ENE,57,0.0,0.0,82,0.00,,CLR,0.01,VWS V14.01,2013-02-12 05:30:00,
2013-02-11 23:35:00,44.0,39.2,30.19,ENE,57,0.0,0.0,83,0.00,,CLR,0.01,VWS V14.01,2013-02-12 05:35:00,
2013-02-11 23:40:00,44.0,39.2,30.19,ENE,57,0.0,0.0,83,0.00,,CLR,0.01,VWS V14.01,2013-02-12 05:40:00,
2013-02-11 23:45:00,43.9,39.1,30.18,ENE,57,0.0,0.0,83,0.00,,CLR,0.01,VWS V14.01,2013-02-12 05:45:00,
2013-02-11 23:50:00,43.8,39.0,30.18,ENE,57,0.0,0.0,83,0.00,,CLR,0.01,VWS V14.01,2013-02-12 05:50:00,
2013-02-11 23:55:00,43.7,38.9,30.18,ENE,57,0.0,0.0,83,0.00,,CLR,0.01,VWS V14.01,2013-02-12 05:55:00,